D/T METAR WX W/DIR W/SPE G/SPE TEMP DEWP
8/12/19 00:20 EGNX 080020Z 20025G36KT 4600 RA BKN011 09/08 Q0997 RA SSW (200°) 28.8mph 41.4mph 9°C 8°C
7/12/19 23:50 EGNX 072350Z 20024KT 6000 RA BKN012 09/08 Q0998 RA SSW (200°) 27.6mph 9°C 8°C
7/12/19 22:50 EGNX 072250Z 20021KT 9999 -RA BKN013 09/08 Q1000 -RA SSW (200°) 24.2mph 9°C 8°C
7/12/19 22:20 EGNX 072220Z 20023KT 9999 BKN013 09/07 Q1001 SSW (200°) 26.5mph 9°C 7°C
7/12/19 21:50 EGNX 072150Z 19019KT 9999 BKN012 09/07 Q1002 S (190°) 21.9mph 9°C 7°C
7/12/19 21:20 EGNX 072120Z 20021G31KT 9999 SCT011 BKN016 09/07 Q1003 SSW (200°) 24.2mph 35.7mph 9°C 7°C
7/12/19 20:50 EGNX 072050Z 21022KT 9999 SCT010 BKN015 09/07 Q1004 SSW (210°) 25.3mph 9°C 7°C
7/12/19 20:20 EGNX 072020Z 20018KT 9999 SCT010 BKN016 09/07 Q1004 SSW (200°) 20.7mph 9°C 7°C
7/12/19 19:50 EGNX 071950Z 20016KT 9999 SCT011 08/07 Q1005 SSW (200°) 18.4mph 8°C 7°C
7/12/19 19:20 EGNX 071920Z 19013KT 9999 SCT019 08/07 Q1005 S (190°) 15.0mph 8°C 7°C
7/12/19 18:20 EGNX 071820Z 20011KT 9999 BKN019 08/07 Q1007 SSW (200°) 12.7mph 8°C 7°C
7/12/19 17:50 EGNX 071750Z 19010KT 9999 BKN016 09/07 Q1008 S (190°) 11.5mph 9°C 7°C
7/12/19 17:20 EGNX 071720Z 18010KT 9999 SCT017 BKN024 09/07 Q1008 S (180°) 11.5mph 9°C 7°C
7/12/19 16:50 EGNX 071650Z 19010KT 9999 SCT020 BKN048 09/07 Q1008 S (190°) 11.5mph 9°C 7°C
7/12/19 16:20 EGNX 071620Z 20008KT 9999 SCT030 09/06 Q1008 SSW (200°) 9.2mph 9°C 6°C
7/12/19 15:20 EGNX 071520Z 20009KT 9999 FEW035 09/06 Q1009 SSW (200°) 10.4mph 9°C 6°C
7/12/19 14:50 EGNX 071450Z 21011KT 9999 FEW020 09/06 Q1009 SSW (210°) 12.7mph 9°C 6°C
7/12/19 14:20 EGNX 071420Z 22013KT 9999 FEW022 09/06 Q1009 SW (220°) 15.0mph 9°C 6°C
7/12/19 13:50 EGNX 071350Z 22012KT 9999 BKN025 09/06 Q1009 SW (220°) 13.8mph 9°C 6°C
7/12/19 13:20 EGNX 071320Z 22011KT 9999 BKN025 09/06 Q1010 SW (220°) 12.7mph 9°C 6°C
7/12/19 12:50 EGNX 071250Z 23012KT 9999 BKN023 09/06 Q1010 SW (230°) 13.8mph 9°C 6°C
7/12/19 12:20 EGNX 071220Z 23013KT 9999 BKN022 09/06 Q1010 SW (230°) 15.0mph 9°C 6°C
7/12/19 11:50 EGNX 071150Z 23011KT 9999 SCT023 09/06 Q1011 SW (230°) 12.7mph 9°C 6°C
7/12/19 11:20 EGNX 071120Z 22012KT 9999 BKN023 09/06 Q1011 SW (220°) 13.8mph 9°C 6°C
7/12/19 10:50 EGNX 071050Z 23013KT 9999 FEW027 08/05 Q1011 SW (230°) 15.0mph 8°C 5°C
7/12/19 10:20 EGNX 071020Z 23013KT 9999 FEW032 09/06 Q1012 SW (230°) 15.0mph 9°C 6°C
7/12/19 09:50 EGNX 070950Z 24011KT 9999 FEW037 08/06 Q1011 WSW (240°) 12.7mph 8°C 6°C
7/12/19 08:50 EGNX 070850Z 23012KT 9999 FEW037 07/06 Q1011 SW (230°) 13.8mph 7°C 6°C
7/12/19 08:20 EGNX 070820Z 23011KT 9999 SCT038 08/06 Q1011 SW (230°) 12.7mph 8°C 6°C
7/12/19 07:50 EGNX 070750Z 23009KT 9999 FEW036 08/06 Q1011 SW (230°) 10.4mph 8°C 6°C
7/12/19 07:20 EGNX 070720Z 26012KT CAVOK 08/06 Q1010 W (260°) 13.8mph 8°C 6°C
7/12/19 06:50 EGNX 070650Z 26016KT CAVOK 08/06 Q1010 W (260°) 18.4mph 8°C 6°C
7/12/19 06:20 EGNX 070620Z 26013KT 9999 SCT036 08/06 Q1010 W (260°) 15.0mph 8°C 6°C
7/12/19 05:50 EGNX 070550Z 24012KT 9999 SCT038 08/06 Q1009 WSW (240°) 13.8mph 8°C 6°C
7/12/19 05:20 EGNX 070520Z 25014KT 9999 BKN036 08/06 Q1010 WSW (250°) 16.1mph 8°C 6°C
7/12/19 04:50 EGNX 070450Z 24014KT 9999 OVC035 08/06 Q1009 WSW (240°) 16.1mph 8°C 6°C
7/12/19 04:20 EGNX 070420Z 24012KT 9999 OVC032 08/06 Q1009 WSW (240°) 13.8mph 8°C 6°C
7/12/19 03:50 EGNX 070350Z 24012KT 9999 BKN033 08/06 Q1009 WSW (240°) 13.8mph 8°C 6°C
7/12/19 03:20 EGNX 070320Z 25013KT 9999 BKN031 08/06 Q1009 WSW (250°) 15.0mph 8°C 6°C
7/12/19 02:50 EGNX 070250Z 25013KT 9999 BKN035 08/06 Q1008 WSW (250°) 15.0mph 8°C 6°C
7/12/19 02:20 EGNX 070220Z 25017KT 9999 BKN035 08/06 Q1008 WSW (250°) 19.6mph 8°C 6°C
7/12/19 01:50 EGNX 070150Z 25019KT 9999 SCT035 08/06 Q1008 WSW (250°) 21.9mph 8°C 6°C
7/12/19 01:20 EGNX 070120Z 25017KT 9999 SCT032 08/06 Q1008 WSW (250°) 19.6mph 8°C 6°C
7/12/19 00:50 EGNX 070050Z 26021KT 9999 SCT032 08/06 Q1007 W (260°) 24.2mph 8°C 6°C
7/12/19 00:20 EGNX 070020Z 25014KT 9999 SCT034 08/06 Q1007 WSW (250°) 16.1mph 8°C 6°C
6/12/19 23:50 EGNX 062350Z 25017KT 9999 SCT036 08/06 Q1007 WSW (250°) 19.6mph 8°C 6°C
6/12/19 23:20 EGNX 062320Z 24015KT 9999 SCT031 08/06 Q1006 WSW (240°) 17.3mph 8°C 6°C
6/12/19 22:50 EGNX 062250Z 25014KT 9999 SCT031 08/06 Q1006 WSW (250°) 16.1mph 8°C 6°C